Nearby METAR Reports

 

KSJC - San Jose, California, USA
Distance from station: NE 9mi, 14km
Updated: Sun, 25-Aug-2019 9:32am PDT
Partly cloudy
Partly cloudy
 Wind from varies
Wind: varies 3 mph , 6 km/h
Temperature: 68°F , 20°C
Dew Point: 63°F , 17°C
Humidity: 83%
Barometer: 30.01 inHg , 1016.3 hPa
Clouds: Partly cloudy
Visibility: 10 miles , 16 km
Cloud details: Few Clouds 500 ft
Partly cloudy 1000 ft
2019/08/25 16:32 KSJC 251632Z VRB03KT 10SM FEW005 SCT010 20/17 A3001 RMK AO2 T02000167
KNUQ - Moffett Nas/Mtn, California, USA
Distance from station: N 9mi, 14km
Updated: Sun, 25-Aug-2019 8:56am PDT
Overcast
Overcast
 Wind from calm
Wind: Calm
Temperature: 66°F , 19°C
Dew Point: 61°F , 16°C
Humidity: 83%
Barometer: 30.02 inHg , 1016.6 hPa
Clouds: Overcast
Visibility: 8 miles , 13 km
Cloud details: Overcast 1000 ft
2019/08/25 15:56 KNUQ 251556Z 00000KT 8SM OVC010 19/16 A3002 RMK AO2 SLP167 T01890161
 
KPAO - Palo Alto, California, USA
Distance from station: NNW 14mi, 23km
Updated: Sun, 25-Aug-2019 9:29am PDT
Haze, Mostly cloudy
Haze, Mostly cloudy
 Wind from calm
Wind: Calm
Temperature: 66°F , 19°C
Dew Point: 61°F , 16°C
Humidity: 83%
Barometer: 30.02 inHg , 1016.6 hPa
Summary: Haze
Clouds: Mostly cloudy
Visibility: 6 miles , 10 km
Cloud details: Mostly cloudy 1000 ft
2019/08/25 16:29 KPAO 251629Z 00000KT 6SM HZ BKN010 19/16 A3002
KRHV - San Jose/Reid, California, USA
Distance from station: ENE 12mi, 19km
Updated: Sun, 25-Aug-2019 8:47am PDT
Clear
Clear
 Wind from WSW
Wind: WSW 3 mph , 6 km/h
Temperature: 68°F , 20°C
Dew Point: 61°F , 16°C
Humidity: 78%
Barometer: 30.02 inHg , 1016.6 hPa
Clouds: Clear
Visibility: 8 miles , 13 km
2019/08/25 15:47 KRHV 251547Z 24003KT 8SM SKC 20/16 A3002
 
KOAK - Oakland, California, USA
Distance from station: NNW 31mi, 50km
Updated: Sun, 25-Aug-2019 8:53am PDT
Mist, Overcast
Mist, Overcast
 Wind from W
Wind: W 6 mph , 9 km/h
Temperature: 63°F , 17°C
Dew Point: 59°F , 15°C
Humidity: 88%
Barometer: 30.03 inHg , 1016.9 hPa
Summary: Mist
Clouds: Overcast
Visibility: 3 miles , 5 km
Cloud details: Overcast 600 ft
2019/08/25 15:53 KOAK 251553Z 28005KT 3SM BR OVC006 17/15 A3003 RMK AO2 SLP166 T01720150
KSQL - San Carlos Airpo, California, USA
Distance from station: NW 21mi, 34km
Updated: Sun, 25-Aug-2019 8:47am PDT
Mist, Overcast
Mist, Overcast
 Wind from NNE
Wind: NNE 3 mph , 6 km/h
Temperature: 64°F , 18°C
Dew Point: 61°F , 16°C
Humidity: 88%
Barometer: 30.03 inHg , 1016.9 hPa
Summary: Mist
Clouds: Overcast
Visibility: 6 miles , 10 km
Cloud details: Overcast 800 ft
2019/08/25 15:47 KSQL 251547Z 02003KT 6SM BR OVC008 18/16 A3003
 
KSFO - San Francisco, California, USA
Distance from station: NW 30mi, 49km
Updated: Sun, 25-Aug-2019 9:22am PDT
Partly cloudy
Partly cloudy
 Wind from calm
Wind: Calm
Temperature: 64°F , 18°C
Dew Point: 57°F , 14°C
Humidity: 78%
Barometer: 30.01 inHg , 1016.3 hPa
Clouds: Partly cloudy
Visibility: 8 miles , 13 km
Cloud details: Few Clouds 400 ft
Partly cloudy 800 ft
Partly cloudy 1200 ft
2019/08/25 16:22 KSFO 251622Z 00000KT 8SM FEW004 SCT008 SCT012 18/14 A3001 RMK AO2 T01830139
KE16 - San Martin, California, USA
Distance from station: ESE 27mi, 43km
Updated: Mon, 05-Aug-2019 10:10am PDT
NOT Current
Clear
Clear
 Wind from ESE
Wind: ESE 12 mph , 19 km/h
Temperature: 66°F , 19°C
Dew Point: 57°F , 14°C
Humidity: 73%
Barometer: 30.03 inHg , 1016.9 hPa
Clouds: Clear
Visibility: 10 miles , 16 km
2019/08/05 17:10 KE16 051710Z AUTO 12010KT 10SM CLR 19/14 A3003 RMK AO2
 
KWVI - Watsonville, California, USA
Distance from station: SSE 27mi, 44km
Updated: Sun, 25-Aug-2019 8:53am PDT
Mist, Overcast
Mist, Overcast
 Wind from calm
Wind: Calm
Temperature: 61°F , 16°C
Dew Point: 57°F , 14°C
Humidity: 88%
Barometer: 30.02 inHg , 1016.6 hPa
Summary: Mist
Clouds: Overcast
Visibility: 3 miles , 5 km
Cloud details: Overcast 300 ft
2019/08/25 15:53 KWVI 251553Z AUTO 00000KT 3SM BR OVC003 16/14 A3002 RMK AO2 SLP165 T01610144
KHAF - Half Moon Bay, California, USA
Distance from station: WNW 31mi, 50km
Updated: Sun, 25-Aug-2019 9:35am PDT
Mist, Overcast
Mist, Overcast
 Wind from NW
Wind: NW 5 mph , 7 km/h
Temperature: 57°F , 14°C
Dew Point: 57°F , 14°C
Humidity: 100%
Barometer: 30.03 inHg , 1016.9 hPa
Summary: Mist
Clouds: Overcast
Visibility: 1 mile , 2 km
Cloud details: Overcast 300 ft
2019/08/25 16:35 KHAF 251635Z AUTO 31004KT 1SM BR OVC003 14/14 A3003 RMK AO2
 
KHWD - Hayward, California, USA
Distance from station: N 28mi, 44km
Updated: Sun, 25-Aug-2019 8:54am PDT
Mist, Overcast
Mist, Overcast
 Wind from calm
Wind: Calm
Temperature: 63°F , 17°C
Dew Point: 61°F , 16°C
Humidity: 94%
Barometer: 30.02 inHg , 1016.6 hPa
Summary: Mist
Clouds: Overcast
Visibility: 6 miles , 10 km
Cloud details: Overcast 600 ft
2019/08/25 15:54 KHWD 251554Z 00000KT 6SM BR OVC006 17/16 A3002 RMK AO2 SLP173 T01720156
KLVK - Livermore, California, USA
Distance from station: NNE 31mi, 51km
Updated: Sun, 25-Aug-2019 8:53am PDT
Clear
Clear
 Wind from W
Wind: W 6 mph , 9 km/h
Temperature: 72°F , 22°C
Dew Point: 61°F , 16°C
Humidity: 69%
Barometer: 29.99 inHg , 1015.6 hPa
Clouds: Clear
Visibility: 10 miles , 16 km
2019/08/25 15:53 KLVK 251553Z 28005KT 10SM CLR 22/16 A2999 RMK AO2 SLP153 T02170156